Terminal Aerodrome Forecast
Issued by NWS

Home | Current Version | Previous Version | Text Only | Print | Product List | Glossary On
Versions: 1 2 3 4 5 6 7 8 9 10 11 12 13
000
FTUS41 KBTV 251730
TAFMSS
TAF
KMSS 251730Z 2518/2618 29010KT P6SM BKN060
     FM260000 30004KT P6SM BKN050
     FM261200 30004KT P6SM OVC030
     FM261400 31004KT P6SM VCSH OVC035=

USA.gov is the U.S. government's official web portal to all federal, state and local government web resources and services.